KBIL

Billings Logan International Airport

Airport
ICAO code
KBIL
IATA Code
BIL
Summary
ICAO Region
NAM
ICAO Territory
Location

Billings, Montana

Serving
Billings
Elevation
3652 ft
Coordinates
45° 48' 9" N , 108° 32' 8" W
KCC
Airport CFIT
Altimeter Temperature Error Correction
Airport LOS
Parallel Runway Operation
Airport RE
Hot and High Operations
Metar
KBIL 252353Z 24014G24KT 10SM FEW090 SCT120 BKN180 13/M05 A2954 RMK AO2 PK WND 25029/2343 SLP992 VIRGA T01331050 10144 20133 56016 $

Description

Billings Logan International Airport is a public use airport located 2 nm northwest of the central business district of Billings, in Yellowstone County, Montana, USA.

Airport map

Aerial View

SKYbrary Partners:

Safety knowledge contributed by: